Time;durP1;ratioP1;P1;durP2;ratioP2;P2;SDS_P1;SDS_P2;PMS_P1;PMS_P2;Temp;Humidity;BMP_temperature;BMP_pressure;BME280_temperature;BME280_humidity;BME280_pressure;Samples;Min_cycle;Max_cycle;Signal;HPM_P1;HPM_P2
2021/07/18 00:01:17;;;;;;;3.55;3.25;;;;;;;19.03;66.29;102581.25;10526885;28;20459;-79
2021/07/18 00:06:18;;;;;;;3.50;3.20;;;;;;;19.01;66.30;102588.84;10547881;28;20461;-79
2021/07/18 00:11:18;;;;;;;2.65;2.45;;;;;;;18.97;66.57;102576.63;10535470;28;20416;-79
2021/07/18 00:16:19;;;;;;;4.40;2.72;;;;;;;18.83;66.81;102547.50;10535072;28;20050;-79
2021/07/18 00:21:19;;;;;;;3.90;3.22;;;;;;;18.86;66.75;102566.25;10511535;28;20185;-80
2021/07/18 00:26:21;;;;;;;9.85;5.07;;;;;;;18.86;66.96;102563.53;10522531;28;20054;-78
2021/07/18 00:31:21;;;;;;;23.05;12.20;;;;;;;18.78;66.99;102562.69;10540324;28;20475;-79
2021/07/18 00:36:22;;;;;;;5.05;4.32;;;;;;;18.77;67.34;102560.16;10520281;28;20038;-80
2021/07/18 00:41:23;;;;;;;33.85;15.65;;;;;;;18.68;67.02;102569.63;10521364;28;20097;-80
2021/07/18 00:46:23;;;;;;;9.77;8.27;;;;;;;18.65;66.83;102570.91;10539322;28;20424;-80
2021/07/18 00:51:24;;;;;;;11.70;4.60;;;;;;;18.61;66.93;102566.88;10518362;28;20135;-79
2021/07/18 00:56:24;;;;;;;7.63;4.32;;;;;;;18.56;66.73;102570.25;10518850;28;20028;-79
2021/07/18 01:01:26;;;;;;;4.43;4.03;;;;;;;18.42;66.98;102546.63;10518777;28;20063;-80
2021/07/18 01:06:30;;;;;;;5.78;4.53;;;;;;;18.50;66.94;102565.59;10502045;28;20084;-80
2021/07/18 01:11:34;;;;;;;6.10;4.10;;;;;;;18.45;66.73;102556.34;10536974;28;20040;-80
2021/07/18 01:16:35;;;;;;;6.32;4.10;;;;;;;18.43;66.97;102569.41;10535802;28;20052;-80
2021/07/18 01:21:38;;;;;;;6.80;3.45;;;;;;;18.41;66.84;102555.91;10516191;28;20509;-79
2021/07/18 01:26:39;;;;;;;9.95;3.47;;;;;;;18.36;67.08;102559.25;10517480;28;20146;-79
2021/07/18 01:31:40;;;;;;;10.02;5.20;;;;;;;18.34;66.97;102544.91;10515858;28;20336;-80
2021/07/18 01:36:41;;;;;;;5.82;4.57;;;;;;;18.32;67.06;102549.78;10515220;28;20035;-80
2021/07/18 01:41:45;;;;;;;4.63;4.22;;;;;;;18.26;67.07;102542.38;10533868;28;20048;-79
2021/07/18 01:46:46;;;;;;;4.70;3.95;;;;;;;18.25;67.54;102546.19;10517535;28;20079;-80
2021/07/18 01:51:47;;;;;;;4.60;3.97;;;;;;;18.10;67.30;102520.84;10518602;28;20055;-79
2021/07/18 01:56:47;;;;;;;15.80;5.05;;;;;;;18.18;67.08;102556.28;10518979;28;20514;-80
2021/07/18 02:01:48;;;;;;;13.55;5.10;;;;;;;18.13;67.15;102532.22;10535849;28;20137;-80
2021/07/18 02:06:50;;;;;;;4.22;3.92;;;;;;;18.10;67.52;102538.13;10518030;28;20093;-80
2021/07/18 02:11:50;;;;;;;5.88;5.05;;;;;;;18.07;67.48;102537.72;10517315;28;20028;-80
2021/07/18 02:16:52;;;;;;;5.80;4.88;;;;;;;18.07;67.37;102544.03;10534412;28;20117;-80
2021/07/18 02:21:56;;;;;;;4.65;4.22;;;;;;;17.86;67.24;102514.88;10516687;28;20044;-79
2021/07/18 02:26:57;;;;;;;10.05;4.63;;;;;;;17.97;67.42;102543.59;10519516;28;20094;-80
2021/07/18 02:31:58;;;;;;;7.10;5.00;;;;;;;17.98;67.59;102538.94;10541751;28;20051;-80
2021/07/18 02:36:58;;;;;;;8.70;4.95;;;;;;;17.97;67.71;102537.28;10490621;28;20059;-80
2021/07/18 02:41:59;;;;;;;12.30;5.07;;;;;;;17.96;67.71;102528.16;10541587;28;20040;-80
2021/07/18 02:46:59;;;;;;;7.18;5.43;;;;;;;17.97;68.00;102531.78;10517335;28;20061;-80
2021/07/18 02:52:00;;;;;;;5.80;5.30;;;;;;;17.75;67.87;102496.28;10497842;28;20041;-80
2021/07/18 02:57:00;;;;;;;13.45;6.85;;;;;;;17.97;67.81;102523.56;10503580;28;20492;-80
2021/07/18 03:02:02;;;;;;;7.40;5.40;;;;;;;17.94;67.93;102533.03;10507302;28;20492;-80
2021/07/18 03:07:02;;;;;;;6.90;5.72;;;;;;;17.94;67.69;102529.47;10507570;28;20146;-80
2021/07/18 03:12:03;;;;;;;8.80;5.90;;;;;;;17.91;68.09;102525.22;10472744;28;20138;-80
2021/07/18 03:17:04;;;;;;;6.55;5.90;;;;;;;17.90;67.97;102520.81;10489014;28;20029;-79
2021/07/18 03:22:05;;;;;;;6.40;5.53;;;;;;;17.88;68.77;102518.25;10505910;28;20419;-79
2021/07/18 03:27:05;;;;;;;8.80;6.25;;;;;;;17.86;69.22;102514.88;10507486;28;20036;-80
2021/07/18 03:32:06;;;;;;;11.00;5.50;;;;;;;17.57;69.00;102460.38;10488252;28;20121;-80
2021/07/18 03:37:07;;;;;;;13.63;6.47;;;;;;;17.84;69.00;102506.03;10488316;28;20502;-80
2021/07/18 03:42:07;;;;;;;6.35;4.60;;;;;;;17.78;69.28;102504.13;10504876;28;20127;-80
2021/07/18 03:47:08;;;;;;;5.97;4.53;;;;;;;17.74;69.64;102499.19;10504515;28;20516;-79
2021/07/18 03:52:08;;;;;;;10.73;6.28;;;;;;;17.67;69.79;102485.47;10505129;28;20046;-80
2021/07/18 03:57:09;;;;;;;7.63;4.82;;;;;;;17.81;69.65;102503.69;10504825;28;20095;-80
2021/07/18 04:02:09;;;;;;;16.83;6.32;;;;;;;17.86;69.77;102514.88;10504565;28;20127;-80
2021/07/18 04:07:10;;;;;;;6.78;5.20;;;;;;;17.87;69.93;102516.56;10503017;28;20115;-80
2021/07/18 04:12:10;;;;;;;8.80;6.05;;;;;;;17.94;69.57;102511.09;10470992;28;20365;-80
2021/07/18 04:17:10;;;;;;;6.68;5.45;;;;;;;18.00;69.42;102514.94;10488663;28;20454;-80
2021/07/18 04:22:11;;;;;;;10.18;6.00;;;;;;;18.06;69.61;102527.78;10504288;28;20136;-79
2021/07/18 04:27:11;;;;;;;7.57;5.78;;;;;;;17.96;69.91;102488.97;10486378;28;20036;-80
2021/07/18 04:32:12;;;;;;;7.50;5.35;;;;;;;18.19;69.68;102514.13;10502229;28;20040;-80
2021/07/18 04:37:13;;;;;;;5.65;5.15;;;;;;;18.33;69.22;102524.03;10486023;28;20472;-80
2021/07/18 04:42:13;;;;;;;7.75;6.57;;;;;;;18.43;69.56;102518.13;10470558;28;20055;-80
2021/07/18 04:47:14;;;;;;;9.43;7.15;;;;;;;18.55;69.92;102521.94;10487581;28;20066;-80
2021/07/18 04:52:15;;;;;;;14.07;5.50;;;;;;;18.74;69.51;102516.69;10471853;28;20149;-80
2021/07/18 04:57:16;;;;;;;6.28;5.68;;;;;;;19.47;69.40;102524.75;10520493;28;20039;-80
2021/07/18 05:02:16;;;;;;;6.97;5.80;;;;;;;21.09;66.67;102520.44;10501355;28;20111;-81
2021/07/18 05:07:17;;;;;;;8.48;5.65;;;;;;;22.11;64.93;102510.66;10501025;28;20414;-81
2021/07/18 05:12:18;;;;;;;10.38;5.97;;;;;;;22.66;63.34;102469.00;10484626;28;20032;-80
2021/07/18 05:17:19;;;;;;;6.60;4.57;;;;;;;23.30;61.92;102469.06;10501453;28;20029;-79
2021/07/18 05:22:19;;;;;;;6.07;5.40;;;;;;;23.67;61.49;102453.78;10484303;28;20053;-80
2021/07/18 05:27:20;;;;;;;5.50;3.53;;;;;;;24.12;60.32;102416.97;10500188;28;20044;-80
2021/07/18 05:32:21;;;;;;;5.25;4.13;;;;;;;25.18;59.70;102499.19;10499739;28;20038;-81
2021/07/18 05:37:22;;;;;;;3.92;3.63;;;;;;;25.63;58.43;102514.72;10500322;28;20033;-80
2021/07/18 05:42:22;;;;;;;6.32;3.45;;;;;;;26.11;57.98;102507.47;10482941;28;20111;-81
2021/07/18 05:47:26;;;;;;;6.90;3.92;;;;;;;26.38;57.19;102503.81;10484650;28;20155;-80
2021/07/18 05:52:26;;;;;;;6.30;3.03;;;;;;;26.87;56.69;102507.28;10499289;28;20049;-81
2021/07/18 05:57:27;;;;;;;2.85;2.63;;;;;;;27.32;55.49;102508.63;10483535;28;20127;-79
2021/07/18 06:02:29;;;;;;;7.80;2.92;;;;;;;27.74;55.26;102501.25;10501703;28;20411;-80
2021/07/18 06:07:29;;;;;;;4.90;2.83;;;;;;;27.99;54.48;102504.13;10516803;28;20055;-82
2021/07/18 06:12:33;;;;;;;2.92;2.42;;;;;;;27.48;54.07;102327.84;10466781;28;20035;-82
2021/07/18 06:17:40;;;;;;;2.80;2.13;;;;;;;29.04;52.57;102510.25;10482719;28;20398;-80
2021/07/18 06:22:41;;;;;;;7.15;2.75;;;;;;;29.24;52.16;102484.22;10485014;28;20043;-81
2021/07/18 06:27:41;;;;;;;8.02;2.08;;;;;;;29.34;51.35;102431.97;10499021;28;20037;-81
2021/07/18 06:32:42;;;;;;;2.00;1.90;;;;;;;30.13;51.18;102507.44;10500091;28;20043;-81
2021/07/18 06:37:44;;;;;;;2.92;2.72;;;;;;;30.30;50.83;102502.28;10466140;28;20043;-81
2021/07/18 06:42:44;;;;;;;8.68;2.05;;;;;;;30.78;49.88;102498.78;10516135;28;20024;-82
2021/07/18 06:47:45;;;;;;;7.07;1.85;;;;;;;30.66;48.16;102456.38;10482777;28;20060;-80
2021/07/18 06:52:46;;;;;;;1.67;1.55;;;;;;;30.48;47.71;102360.13;10482503;28;20040;-81
2021/07/18 06:57:48;;;;;;;6.60;2.40;;;;;;;31.20;47.32;102427.19;10482676;28;20025;-82
2021/07/18 07:02:48;;;;;;;3.58;2.10;;;;;;;32.33;46.40;102494.44;10466821;28;20039;-81
2021/07/18 07:07:49;;;;;;;3.83;1.48;;;;;;;32.28;47.07;102476.84;10490842;28;20036;-81
2021/07/18 07:12:51;;;;;;;2.72;2.53;;;;;;;32.73;45.88;102496.81;10508217;28;20111;-80
2021/07/18 07:17:51;;;;;;;1.85;1.75;;;;;;;32.69;46.86;102428.44;10524303;28;20032;-81
2021/07/18 07:22:52;;;;;;;3.95;2.05;;;;;;;33.33;43.39;102502.34;10524008;28;20515;-81
2021/07/18 07:27:52;;;;;;;10.65;2.38;;;;;;;33.50;42.60;102502.53;10524361;28;20055;-81
2021/07/18 07:32:53;;;;;;;2.70;1.60;;;;;;;33.99;42.41;102503.66;10523142;28;20114;-80
2021/07/18 07:37:53;;;;;;;1.83;1.73;;;;;;;34.10;42.17;102500.63;10523241;28;20032;-81
2021/07/18 07:42:53;;;;;;;9.52;2.03;;;;;;;34.01;41.21;102492.97;10509372;28;20065;-81
2021/07/18 07:47:54;;;;;;;4.38;1.33;;;;;;;34.27;41.36;102500.75;10538346;28;20164;-82
2021/07/18 07:52:55;;;;;;;1.60;1.50;;;;;;;34.36;40.79;102504.44;10530151;28;20042;-80
2021/07/18 07:57:55;;;;;;;3.45;1.80;;;;;;;34.81;39.67;102487.47;10529952;28;20031;-80
2021/07/18 08:02:56;;;;;;;0.93;0.93;;;;;;;34.75;39.44;102510.47;10548352;28;20120;-80
2021/07/18 08:07:56;;;;;;;4.45;1.75;;;;;;;34.83;39.11;102512.50;10547821;28;20039;-80
2021/07/18 08:12:57;;;;;;;2.03;1.90;;;;;;;34.72;39.35;102458.50;10549472;28;20090;-80
2021/07/18 08:17:57;;;;;;;7.57;2.55;;;;;;;35.17;39.71;102497.75;10547219;28;20044;-80
2021/07/18 08:22:57;;;;;;;4.32;2.08;;;;;;;35.43;39.38;102488.53;10547623;28;20036;-79
2021/07/18 08:27:58;;;;;;;3.70;2.17;;;;;;;35.60;38.43;102486.56;10529328;28;20089;-80
2021/07/18 08:32:58;;;;;;;2.08;1.88;;;;;;;35.78;38.82;102509.97;10528846;28;20055;-78
2021/07/18 08:37:58;;;;;;;2.45;1.88;;;;;;;35.74;38.07;102494.03;10529496;28;20035;-80
2021/07/18 08:42:59;;;;;;;1.63;1.55;;;;;;;35.78;39.49;102497.88;10528771;28;20032;-79
2021/07/18 08:48:00;;;;;;;1.27;1.27;;;;;;;35.99;38.91;102493.19;10545521;28;20560;-79
2021/07/18 08:53:00;;;;;;;4.65;2.38;;;;;;;35.75;37.80;102498.53;10525586;28;20036;-79
2021/07/18 08:58:00;;;;;;;2.75;2.28;;;;;;;34.94;38.66;102384.38;10528143;28;20119;-79
2021/07/18 09:03:01;;;;;;;5.55;2.25;;;;;;;35.51;38.00;102400.34;10547333;28;20093;-80
2021/07/18 09:08:01;;;;;;;1.50;1.40;;;;;;;35.83;37.43;102477.94;10548216;28;20028;-80
2021/07/18 09:13:09;;;;;;;2.00;1.80;;;;;;;36.07;40.07;102471.84;10527576;28;20093;-80
2021/07/18 09:18:11;;;;;;;1.75;1.65;;;;;;;36.14;37.56;102483.44;10544427;28;20040;-79
2021/07/18 09:23:16;;;;;;;1.90;1.80;;;;;;;36.53;38.92;102490.00;10529074;28;20044;-79
2021/07/18 09:28:18;;;;;;;1.65;1.55;;;;;;;36.26;36.64;102463.00;10552365;28;20032;-80
2021/07/18 09:33:28;;;;;;;1.55;1.50;;;;;;;35.82;42.19;102412.28;10551654;28;20063;-80
2021/07/18 09:38:29;;;;;;;1.83;1.48;;;;;;;35.63;38.07;102361.91;10524704;28;20495;-80
2021/07/18 09:43:30;;;;;;;3.05;1.60;;;;;;;36.28;37.05;102481.25;10544847;28;20066;-79
2021/07/18 09:48:44;;;;;;;2.63;1.92;;;;;;;36.34;42.82;102481.88;10543233;28;20056;-79
2021/07/18 09:53:45;;;;;;;1.05;1.05;;;;;;;36.01;37.71;102470.31;10542132;28;20395;-79
2021/07/18 09:58:55;;;;;;;3.15;1.88;;;;;;;35.58;38.26;102401.56;10541998;28;20020;-79
2021/07/18 10:03:55;;;;;;;1.90;1.50;;;;;;;36.62;35.17;102475.88;10542383;28;20486;-79
2021/07/18 10:08:58;;;;;;;5.13;2.38;;;;;;;36.43;36.01;102462.13;10524506;28;20135;-80
2021/07/18 10:13:59;;;;;;;1.73;1.65;;;;;;;36.36;35.83;102437.25;10543728;28;20036;-80
2021/07/18 10:18:59;;;;;;;3.75;2.50;;;;;;;36.72;35.00;102462.19;10526625;28;20455;-80
2021/07/18 10:23:59;;;;;;;5.88;2.08;;;;;;;36.79;37.12;102444.72;10525728;28;20036;-79
2021/07/18 10:29:00;;;;;;;4.43;2.13;;;;;;;37.00;35.05;102447.63;10507866;28;20100;-80
2021/07/18 10:34:02;;;;;;;2.85;2.20;;;;;;;37.38;34.65;102455.19;10523499;28;20028;-79
2021/07/18 10:39:30;;;;;;;1.48;1.17;;;;;;;37.19;38.23;102456.47;10541719;28;20368;-79
2021/07/18 10:44:43;;;;;;;3.17;2.92;;;;;;;37.20;38.58;102458.13;10541805;28;20070;-80
2021/07/18 10:49:51;;;;;;;2.42;2.13;;;;;;;36.89;36.46;102387.06;10523658;28;20385;-80
2021/07/18 10:54:52;;;;;;;3.60;1.50;;;;;;;37.79;32.95;102445.91;10541060;28;20071;-80
2021/07/18 10:59:53;;;;;;;1.73;1.30;;;;;;;37.70;32.94;102457.28;10523672;28;20059;-79
2021/07/18 11:04:53;;;;;;;4.03;1.75;;;;;;;37.54;34.20;102427.16;10541215;28;20047;-79
2021/07/18 11:10:10;;;;;;;1.75;1.65;;;;;;;37.91;36.24;102451.63;10540972;28;20035;-80
2021/07/18 11:15:16;;;;;;;2.25;2.15;;;;;;;37.86;37.75;102448.16;10478526;28;20052;-80
2021/07/18 11:20:43;;;;;;;1.90;1.75;;;;;;;37.83;39.26;102443.19;10549145;28;20032;-80
2021/07/18 11:25:48;;;;;;;1.98;1.77;;;;;;;37.20;33.66;102441.19;10535012;28;20395;-83
2021/07/18 11:30:48;;;;;;;1.42;1.33;;;;;;;37.39;37.58;102426.56;10533867;28;20036;-82
2021/07/18 11:35:55;;;;;;;1.73;1.63;;;;;;;37.73;36.56;102423.84;10514207;28;20028;-82
2021/07/18 11:40:57;;;;;;;2.45;2.25;;;;;;;37.93;33.21;102426.66;10530977;28;20127;-82
2021/07/18 11:45:58;;;;;;;1.55;1.45;;;;;;;38.01;33.31;102418.44;10548118;28;20117;-82
2021/07/18 11:51:11;;;;;;;1.90;1.80;;;;;;;37.38;36.52;102427.75;10535787;28;20449;-82
2021/07/18 11:56:25;;;;;;;1.92;1.83;;;;;;;37.65;37.42;102417.06;10521417;28;20107;-82
2021/07/18 12:01:27;;;;;;;1.90;1.80;;;;;;;38.03;33.68;102422.53;10530425;28;20116;-83
2021/07/18 12:06:28;;;;;;;2.03;1.92;;;;;;;37.94;33.43;102382.25;10513958;28;20036;-83
2021/07/18 12:11:29;;;;;;;3.03;2.28;;;;;;;37.91;33.80;102414.03;10529471;28;20032;-82
2021/07/18 12:16:30;;;;;;;3.65;2.67;;;;;;;38.27;35.47;102406.81;10529141;28;20036;-83
2021/07/18 12:21:38;;;;;;;5.63;2.00;;;;;;;38.00;36.33;102361.03;10530503;28;20459;-83
2021/07/18 12:27:10;;;;;;;1.80;1.70;;;;;;;38.32;39.33;102386.75;10496607;28;20127;-82
2021/07/18 12:32:11;;;;;;;2.05;1.95;;;;;;;38.07;32.46;102388.75;10546456;28;20046;-83
2021/07/18 12:37:14;;;;;;;4.55;2.55;;;;;;;37.97;34.10;102404.13;10530033;28;20110;-83
2021/07/18 12:42:26;;;;;;;2.67;2.45;;;;;;;38.08;38.92;102401.72;10512023;28;20123;-83
2021/07/18 12:47:30;;;;;;;4.05;2.72;;;;;;;38.03;34.48;102397.09;10513458;28;20131;-83
2021/07/18 12:52:31;;;;;;;2.38;2.17;;;;;;;37.98;33.88;102359.75;10513725;28;20028;-83
2021/07/18 12:57:31;;;;;;;4.03;2.08;;;;;;;38.14;33.29;102369.19;10513996;28;20405;-83
2021/07/18 13:02:31;;;;;;;1.73;1.63;;;;;;;37.83;33.02;102342.22;10527618;28;20042;-83
2021/07/18 13:07:32;;;;;;;2.40;2.20;;;;;;;37.77;33.67;102380.38;10527029;28;20109;-82
2021/07/18 13:12:32;;;;;;;2.22;2.13;;;;;;;37.34;34.63;102363.81;10527435;28;20068;-83
2021/07/18 13:17:33;;;;;;;2.15;1.52;;;;;;;37.20;34.45;102390.34;10527840;28;20042;-83
2021/07/18 13:22:35;;;;;;;2.53;2.10;;;;;;;36.88;33.00;102295.88;10511777;28;20051;-82
2021/07/18 13:27:38;;;;;;;1.98;1.85;;;;;;;36.94;34.31;102350.97;10511663;28;20036;-83
2021/07/18 13:32:40;;;;;;;2.53;1.73;;;;;;;36.71;33.69;102377.88;10510008;28;20093;-82
2021/07/18 13:37:48;;;;;;;2.33;2.13;;;;;;;36.69;35.06;102391.47;10517005;28;20090;-82
2021/07/18 13:42:48;;;;;;;2.17;1.73;;;;;;;37.06;33.52;102401.09;10515158;28;20063;-83
2021/07/18 13:47:50;;;;;;;1.70;1.60;;;;;;;36.85;33.62;102383.25;10523909;28;20135;-83
2021/07/18 13:52:50;;;;;;;1.85;1.50;;;;;;;36.51;34.75;102345.63;10486710;28;20127;-82
2021/07/18 13:57:51;;;;;;;2.50;2.30;;;;;;;37.10;33.67;102367.31;10485000;28;20047;-82
2021/07/18 14:02:52;;;;;;;2.45;2.25;;;;;;;36.73;34.50;102384.00;10503624;28;20083;-83
2021/07/18 14:07:53;;;;;;;2.83;2.63;;;;;;;36.02;34.04;102305.63;10522188;28;20024;-82
2021/07/18 14:12:53;;;;;;;7.63;1.90;;;;;;;36.34;35.50;102377.50;10506860;28;20048;-82
2021/07/18 14:17:54;;;;;;;1.90;1.80;;;;;;;36.03;35.74;102391.91;10483983;28;20063;-82
2021/07/18 14:22:55;;;;;;;3.03;2.08;;;;;;;34.13;44.95;102244.16;10501164;28;20116;-82
2021/07/18 14:27:57;;;;;;;5.22;2.60;;;;;;;34.52;36.67;102394.31;10484002;28;20396;-83
2021/07/18 14:32:58;;;;;;;5.50;2.55;;;;;;;34.81;36.62;102380.53;10484577;28;20032;-82
2021/07/18 14:37:58;;;;;;;1.83;1.73;;;;;;;34.29;36.36;102323.25;10469418;28;20046;-83
2021/07/18 14:42:59;;;;;;;2.90;2.70;;;;;;;34.57;36.52;102363.28;10486091;28;20044;-81
2021/07/18 14:48:00;;;;;;;3.17;2.85;;;;;;;34.15;38.45;102396.47;10482833;28;20431;-82
2021/07/18 14:53:05;;;;;;;2.05;1.88;;;;;;;33.83;37.55;102387.16;10491816;28;20036;-82
2021/07/18 14:58:05;;;;;;;1.52;1.48;;;;;;;33.57;37.54;102378.53;10493571;28;20028;-82
2021/07/18 15:03:06;;;;;;;1.98;1.88;;;;;;;33.35;37.83;102382.13;10494504;28;20040;-82
2021/07/18 15:08:07;;;;;;;2.63;1.80;;;;;;;33.11;38.27;102380.41;10478310;28;20415;-82
2021/07/18 15:13:07;;;;;;;5.38;2.10;;;;;;;32.52;38.88;102316.91;10495659;28;20099;-82
2021/07/18 15:18:08;;;;;;;2.03;1.83;;;;;;;32.92;38.35;102385.31;10495175;28;20028;-82
2021/07/18 15:23:10;;;;;;;3.53;3.15;;;;;;;32.82;38.62;102377.09;10477900;28;20414;-82
2021/07/18 15:28:10;;;;;;;3.15;2.45;;;;;;;32.60;38.72;102370.25;10494623;28;20385;-82
2021/07/18 15:33:11;;;;;;;1.55;1.52;;;;;;;32.45;39.34;102393.00;10476596;28;20059;-82
2021/07/18 15:38:11;;;;;;;2.50;2.30;;;;;;;32.37;39.95;102385.28;10493544;28;20032;-81
2021/07/18 15:43:12;;;;;;;2.40;2.30;;;;;;;31.48;39.57;102303.06;10478679;28;20095;-82
2021/07/18 15:48:12;;;;;;;1.52;1.42;;;;;;;31.70;39.94;102372.44;10479107;28;20398;-82
2021/07/18 15:53:14;;;;;;;1.88;1.77;;;;;;;31.36;40.34;102364.28;10497081;28;20474;-81
2021/07/18 15:58:14;;;;;;;3.45;2.17;;;;;;;31.09;41.08;102359.38;10479652;28;20033;-82
2021/07/18 16:03:15;;;;;;;3.17;1.60;;;;;;;30.20;41.48;102278.84;10496811;28;20541;-82
2021/07/18 16:08:15;;;;;;;2.35;2.17;;;;;;;30.54;42.60;102364.53;10506313;28;20120;-82
2021/07/18 16:13:16;;;;;;;2.67;2.47;;;;;;;29.58;43.38;102295.34;10506647;28;20514;-81
2021/07/18 16:18:16;;;;;;;2.35;2.17;;;;;;;29.54;43.25;102304.56;10491095;28;20112;-82
2021/07/18 16:23:17;;;;;;;2.47;2.30;;;;;;;29.75;43.17;102361.09;10508118;28;20028;-81
2021/07/18 16:28:18;;;;;;;2.92;2.72;;;;;;;29.44;44.08;102356.56;10519960;28;20036;-80
2021/07/18 16:33:19;;;;;;;1.67;1.58;;;;;;;28.67;45.63;102350.53;10524030;28;20048;-82
2021/07/18 16:38:22;;;;;;;2.38;1.95;;;;;;;27.61;46.57;102299.47;10512185;28;20115;-81
2021/07/18 16:43:23;;;;;;;2.40;2.30;;;;;;;27.36;47.46;102353.16;10506302;28;20472;-82
2021/07/18 16:48:23;;;;;;;3.60;2.25;;;;;;;26.33;49.08;102267.72;10487210;28;20083;-80
2021/07/18 16:53:24;;;;;;;6.43;3.15;;;;;;;26.45;49.25;102348.84;10502389;28;20040;-83
2021/07/18 16:58:28;;;;;;;4.45;2.67;;;;;;;25.80;49.65;102289.84;10502871;28;20041;-81
2021/07/18 17:03:30;;;;;;;7.20;2.45;;;;;;;25.92;50.42;102337.69;10504842;28;20520;-80
2021/07/18 17:08:32;;;;;;;4.55;3.05;;;;;;;24.76;50.65;102175.53;10487732;28;20120;-81
2021/07/18 17:13:34;;;;;;;8.50;2.92;;;;;;;25.43;50.49;102287.91;10500983;28;20103;-82
2021/07/18 17:18:34;;;;;;;7.43;3.35;;;;;;;24.56;51.42;102180.84;10484856;28;20425;-81
2021/07/18 17:23:35;;;;;;;3.10;2.80;;;;;;;25.43;51.12;102353.59;10482801;28;20092;-81
2021/07/18 17:28:36;;;;;;;2.22;2.10;;;;;;;25.35;51.66;102337.44;10519665;28;20036;-81
2021/07/18 17:33:37;;;;;;;4.60;3.42;;;;;;;24.94;52.79;102298.19;10486399;28;20044;-81
2021/07/18 17:38:42;;;;;;;1.95;1.85;;;;;;;25.04;52.04;102331.53;10521199;28;20107;-82
2021/07/18 17:43:42;;;;;;;3.97;2.88;;;;;;;24.82;52.16;102334.31;10539328;28;20039;-81
2021/07/18 17:48:43;;;;;;;3.25;1.70;;;;;;;24.73;52.24;102361.66;10521251;28;20068;-81
2021/07/18 17:53:43;;;;;;;3.28;2.97;;;;;;;23.19;52.23;102086.63;10522886;28;20097;-81
2021/07/18 17:58:44;;;;;;;9.00;2.55;;;;;;;24.71;52.29;102341.69;10521219;28;20504;-82
2021/07/18 18:03:54;;;;;;;3.33;2.80;;;;;;;24.36;53.64;102340.09;10505038;28;20036;-81
2021/07/18 18:08:56;;;;;;;2.42;2.22;;;;;;;24.33;52.62;102343.34;10522329;28;20031;-81
2021/07/18 18:13:58;;;;;;;2.53;2.28;;;;;;;24.14;53.30;102336.44;10539815;28;20115;-81
2021/07/18 18:19:01;;;;;;;3.15;2.60;;;;;;;23.81;56.00;102340.91;10519473;28;20446;-81
2021/07/18 18:24:03;;;;;;;9.60;2.22;;;;;;;23.75;55.08;102336.38;10539220;28;20035;-81
2021/07/18 18:29:05;;;;;;;7.20;2.53;;;;;;;23.50;55.24;102346.97;10536297;28;20047;-80
2021/07/18 18:34:13;;;;;;;4.07;2.22;;;;;;;23.26;57.08;102327.75;10500962;28;20032;-81
2021/07/18 18:39:14;;;;;;;9.30;2.65;;;;;;;23.16;55.69;102331.13;10540410;28;20039;-81
2021/07/18 18:44:15;;;;;;;4.13;3.03;;;;;;;23.08;55.48;102327.94;10524493;28;20042;-81
2021/07/18 18:49:17;;;;;;;7.68;2.15;;;;;;;23.07;55.88;102321.59;10515543;28;20078;-80
2021/07/18 18:54:18;;;;;;;6.47;2.25;;;;;;;22.98;56.10;102331.34;10543955;28;20135;-80
2021/07/18 18:59:21;;;;;;;13.68;3.25;;;;;;;22.92;56.45;102319.31;10518706;28;20032;-81
2021/07/18 19:04:28;;;;;;;4.25;2.30;;;;;;;22.48;55.97;102296.88;10515798;28;20046;-81
2021/07/18 19:09:30;;;;;;;;;;;;;;;22.71;56.07;102331.03;10516215;28;20067;-80
2021/07/18 19:14:31;;;;;;;6.43;2.55;;;;;;;21.44;56.10;102134.03;10519874;28;19915;-80
2021/07/18 19:19:33;;;;;;;6.60;2.85;;;;;;;22.58;56.40;102321.09;10485786;28;20435;-80
2021/07/18 19:24:39;;;;;;;5.38;2.47;;;;;;;22.48;56.46;102323.66;10537944;28;20446;-81
2021/07/18 19:29:40;;;;;;;8.40;3.17;;;;;;;22.23;56.82;102291.63;10537155;28;20047;-82
2021/07/18 19:34:41;;;;;;;4.50;2.78;;;;;;;22.24;57.11;102312.66;10503294;28;20427;-81
2021/07/18 19:39:45;;;;;;;10.20;3.38;;;;;;;21.75;57.33;102251.34;10486407;28;20040;-80
2021/07/18 19:44:47;;;;;;;2.70;2.50;;;;;;;21.94;57.58;102317.41;10545608;28;20046;-82
2021/07/18 19:49:48;;;;;;;5.93;2.78;;;;;;;21.90;57.68;102310.69;10518011;28;20493;-81
2021/07/18 19:54:49;;;;;;;4.55;2.08;;;;;;;21.79;57.97;102321.50;10500711;28;20139;-81
2021/07/18 19:59:57;;;;;;;7.72;2.90;;;;;;;21.72;57.84;102319.91;10468218;28;20039;-80
2021/07/18 20:05:01;;;;;;;3.00;2.63;;;;;;;21.65;58.60;102321.94;10529499;28;20148;-81
2021/07/18 20:10:04;;;;;;;4.07;2.58;;;;;;;20.79;58.44;102203.69;10531256;28;20535;-81
2021/07/18 20:15:23;;;;;;;2.78;2.35;;;;;;;21.48;58.78;102338.34;10530842;28;20036;-80
2021/07/18 20:20:24;;;;;;;5.00;3.95;;;;;;;21.39;58.87;102326.78;10552203;28;20028;-81
2021/07/18 20:25:26;;;;;;;17.77;3.45;;;;;;;21.31;58.92;102324.31;10529169;28;20362;-81
2021/07/18 20:30:27;;;;;;;6.15;2.67;;;;;;;21.23;59.04;102322.75;10529697;28;20039;-81
2021/07/18 20:35:29;;;;;;;3.47;3.17;;;;;;;21.14;59.60;102338.75;10529472;28;20042;-83
2021/07/18 20:40:29;;;;;;;4.60;3.25;;;;;;;21.06;59.65;102339.09;10510019;28;20035;-78
2021/07/18 20:45:30;;;;;;;4.60;2.92;;;;;;;20.98;59.99;102331.16;10522130;28;20443;-75
2021/07/18 20:50:31;;;;;;;7.57;4.05;;;;;;;20.92;60.35;102336.75;10540527;28;20139;-76
2021/07/18 20:55:32;;;;;;;8.57;4.30;;;;;;;20.85;60.38;102326.66;10538795;28;20032;-75
2021/07/18 21:00:32;;;;;;;12.23;3.83;;;;;;;20.78;60.71;102333.34;10539903;28;20075;-75
2021/07/18 21:05:33;;;;;;;4.80;3.05;;;;;;;19.98;60.95;102214.00;10542255;28;20043;-75
2021/07/18 21:10:34;;;;;;;4.28;2.85;;;;;;;20.65;61.23;102331.59;10525149;28;20515;-75
2021/07/18 21:15:35;;;;;;;9.02;4.72;;;;;;;20.59;61.49;102333.34;10541344;28;20035;-74
2021/07/18 21:20:36;;;;;;;4.55;3.45;;;;;;;20.51;62.19;102330.88;10536118;28;20447;-75
2021/07/18 21:25:36;;;;;;;14.75;5.32;;;;;;;19.82;62.25;102238.53;10535639;28;20485;-75
2021/07/18 21:30:37;;;;;;;9.65;4.70;;;;;;;20.37;62.88;102337.59;10535442;28;20138;-75
2021/07/18 21:35:37;;;;;;;6.45;3.60;;;;;;;19.59;63.48;102211.63;10516965;28;20039;-75
2021/07/18 21:40:37;;;;;;;6.47;5.05;;;;;;;20.25;63.64;102344.91;10538773;28;20490;-76
2021/07/18 21:45:38;;;;;;;6.35;4.13;;;;;;;20.13;63.53;102337.41;10520831;28;20042;-75
2021/07/18 21:50:42;;;;;;;5.85;4.30;;;;;;;18.10;63.91;102060.28;10519878;28;20079;-80
2021/07/18 21:55:42;;;;;;;6.10;4.32;;;;;;;20.17;64.45;102340.53;10504822;28;20032;-79
2021/07/18 22:00:44;;;;;;;5.40;3.83;;;;;;;20.14;64.58;102344.56;10520635;28;20166;-81
2021/07/18 22:05:45;;;;;;;5.30;3.67;;;;;;;19.57;64.61;102241.25;10536380;28;20038;-81
2021/07/18 22:10:46;;;;;;;11.88;4.55;;;;;;;19.74;64.68;102276.19;10520205;28;20159;-81
2021/07/18 22:15:49;;;;;;;7.63;5.07;;;;;;;19.96;64.17;102314.28;10518702;28;20423;-81
2021/07/18 22:20:50;;;;;;;10.00;5.38;;;;;;;20.05;64.32;102364.34;10518322;28;20362;-80
2021/07/18 22:25:50;;;;;;;8.82;4.90;;;;;;;19.99;64.58;102344.09;10520670;28;20139;-81
2021/07/18 22:30:51;;;;;;;8.70;3.90;;;;;;;19.84;64.84;102368.31;10502243;28;20048;-80
2021/07/18 22:35:55;;;;;;;7.05;6.32;;;;;;;19.90;65.19;102339.94;10502501;28;20045;-81
2021/07/18 22:40:56;;;;;;;7.07;4.63;;;;;;;19.87;65.25;102330.22;10520522;28;20099;-81
2021/07/18 22:45:56;;;;;;;7.45;5.07;;;;;;;18.97;65.07;102195.88;10520319;28;20032;-81
2021/07/18 22:50:57;;;;;;;9.48;6.97;;;;;;;19.43;65.29;102284.47;10502026;28;20067;-81
2021/07/18 22:55:59;;;;;;;5.45;4.70;;;;;;;19.47;65.25;102275.56;10517076;28;20547;-81
2021/07/18 23:01:00;;;;;;;13.90;5.40;;;;;;;19.74;65.27;102324.84;10516093;28;20121;-80
2021/07/18 23:06:01;;;;;;;10.57;5.18;;;;;;;19.14;65.13;102225.53;10516618;28;20039;-80